Time;durP1;ratioP1;P1;durP2;ratioP2;P2;SDS_P1;SDS_P2;PMS_P1;PMS_P2;Temp;Humidity;BMP_temperature;BMP_pressure;BME280_temperature;BME280_humidity;BME280_pressure;Samples;Min_cycle;Max_cycle;Signal;HPM_P1;HPM_P2
2022/07/18 00:00:10;;;;;;;;;;;;;;;;;;5008440;28;20187;-81
2022/07/18 00:02:36;;;;;;;12.35;6.25;;;;;;;;;;5025309;28;19966;-82
2022/07/18 00:05:02;;;;;;;;;;;;;;;;;;5013059;28;20042;-80
2022/07/18 00:07:28;;;;;;;12.68;6.10;;;;;;;;;;5009334;28;20215;-81
2022/07/18 00:09:54;;;;;;;18.27;6.47;;;;;;;;;;5008866;28;20115;-82
2022/07/18 00:12:20;;;;;;;16.00;6.32;;;;;;;;;;5015511;28;20057;-81
2022/07/18 00:14:47;;;;;;;14.38;6.72;;;;;;;;;;4991110;28;20064;-80
2022/07/18 00:17:13;;;;;;;;;;;;;;;;;;5025215;28;20151;-80
2022/07/18 00:19:39;;;;;;;14.15;6.80;;;;;;;;;;5011117;28;19964;-81
2022/07/18 00:22:05;;;;;;;;;;;;;;;;;;5028405;28;20505;-81
2022/07/18 00:24:31;;;;;;;16.75;6.35;;;;;;;;;;5008039;28;20163;-81
2022/07/18 00:26:58;;;;;;;13.20;6.18;;;;;;;;;;5017713;28;20056;-80
2022/07/18 00:29:24;;;;;;;14.43;6.93;;;;;;;;;;5010895;28;20033;-81
2022/07/18 00:31:50;;;;;;;;;;;;;;;;;;5021380;28;20140;-80
2022/07/18 00:34:16;;;;;;;13.82;6.80;;;;;;;;;;5011887;28;19925;-81
2022/07/18 00:36:42;;;;;;;;;;;;;;;;;;5009610;28;20048;-81
2022/07/18 00:39:08;;;;;;;15.10;6.28;;;;;;;;;;4991982;28;19921;-82
2022/07/18 00:41:34;;;;;;;;;;;;;;;;;;5015853;28;20046;-81
2022/07/18 00:44:00;;;;;;;12.10;6.10;;;;;;;;;;5009285;28;19918;-81
2022/07/18 00:46:27;;;;;;;14.93;6.68;;;;;;;;;;5009641;28;20052;-81
2022/07/18 00:48:53;;;;;;;13.93;6.63;;;;;;;;;;4991749;28;20371;-81
2022/07/18 00:51:20;;;;;;;15.38;6.65;;;;;;;;;;5024180;28;20076;-81
2022/07/18 00:53:47;;;;;;;14.38;6.40;;;;;;;;;;5040264;28;20462;-81
2022/07/18 00:56:13;;;;;;;15.57;6.68;;;;;;;;;;5036381;28;20048;-81
2022/07/18 00:58:40;;;;;;;15.35;7.03;;;;;;;;;;5031213;28;20334;-83
2022/07/18 01:03:51;;;;;;;15.10;7.40;;;;;;;;;;5011181;28;20082;-80
2022/07/18 01:06:17;;;;;;;12.65;6.72;;;;;;;;;;5010419;28;20118;-81
2022/07/18 01:08:43;;;;;;;14.05;6.70;;;;;;;;;;5008026;28;20057;-81
2022/07/18 01:11:09;;;;;;;14.55;7.25;;;;;;;;;;5007835;28;20171;-81
2022/07/18 01:13:36;;;;;;;14.43;6.85;;;;;;;;;;5008071;28;20152;-82
2022/07/18 01:16:02;;;;;;;15.10;7.00;;;;;;;;;;5022418;28;20037;-82
2022/07/18 01:18:28;;;;;;;13.55;7.10;;;;;;;;;;5007653;28;20359;-81
2022/07/18 01:20:54;;;;;;;12.73;6.57;;;;;;;;;;5008435;28;20049;-81
2022/07/18 01:23:20;;;;;;;14.27;7.57;;;;;;;;;;4993432;28;20045;-81
2022/07/18 01:25:46;;;;;;;15.93;6.93;;;;;;;;;;5015069;28;20053;-82
2022/07/18 01:28:13;;;;;;;17.20;6.60;;;;;;;;;;5008360;28;20116;-81
2022/07/18 01:30:39;;;;;;;12.82;7.00;;;;;;;;;;4991201;28;20147;-81
2022/07/18 01:33:05;;;;;;;15.02;6.63;;;;;;;;;;5012986;28;20058;-81
2022/07/18 01:35:32;;;;;;;15.27;7.15;;;;;;;;;;5009229;28;20053;-81
2022/07/18 01:37:59;;;;;;;13.85;7.10;;;;;;;;;;5008595;28;20228;-81
2022/07/18 01:40:25;;;;;;;15.98;7.55;;;;;;;;;;5012183;28;20049;-81
2022/07/18 01:42:51;;;;;;;;;;;;;;;;;;5015531;28;20045;-81
2022/07/18 01:45:18;;;;;;;14.32;7.22;;;;;;;;;;5006673;28;19932;-80
2022/07/18 01:47:44;;;;;;;13.82;7.30;;;;;;;;;;5020598;28;20133;-82
2022/07/18 01:50:11;;;;;;;17.08;6.97;;;;;;;;;;5006969;28;20045;-81
2022/07/18 01:52:37;;;;;;;14.95;7.50;;;;;;;;;;5023752;28;20100;-83
2022/07/18 01:55:04;;;;;;;14.35;7.35;;;;;;;;;;5006772;28;20041;-82
2022/07/18 01:57:30;;;;;;;14.75;7.28;;;;;;;;;;5028962;28;20116;-80
2022/07/18 01:59:56;;;;;;;16.60;7.50;;;;;;;;;;5007838;28;20049;-81
2022/07/18 02:02:22;;;;;;;15.07;7.13;;;;;;;;;;5007289;28;20080;-80
2022/07/18 02:05:00;;;;;;;15.30;7.13;;;;;;;;;;5006721;28;20117;-82
2022/07/18 02:07:35;;;;;;;15.25;7.78;;;;;;;;;;4990823;28;20069;-80
2022/07/18 02:10:03;;;;;;;14.85;7.40;;;;;;;;;;5013556;28;20071;-80
2022/07/18 02:12:29;;;;;;;14.25;6.68;;;;;;;;;;5007745;28;20034;-80
2022/07/18 02:14:56;;;;;;;15.52;7.45;;;;;;;;;;5016425;28;20041;-81
2022/07/18 02:17:22;;;;;;;15.80;7.90;;;;;;;;;;5021148;28;20084;-81
2022/07/18 02:19:48;;;;;;;14.20;7.60;;;;;;;;;;5007614;28;20042;-80
2022/07/18 02:22:14;;;;;;;15.45;7.80;;;;;;;;;;5007353;28;20512;-80
2022/07/18 02:24:40;;;;;;;;;;;;;;;;;;5008818;28;20164;-80
2022/07/18 02:27:06;;;;;;;17.63;7.70;;;;;;;;;;5025861;28;20016;-78
2022/07/18 02:29:32;;;;;;;;;;;;;;;;;;5008295;28;20057;-79
2022/07/18 02:31:59;;;;;;;14.45;7.03;;;;;;;;;;5005810;28;19929;-78
2022/07/18 02:34:25;;;;;;;15.43;7.22;;;;;;;;;;5006849;28;20668;-79
2022/07/18 02:36:51;;;;;;;16.40;7.80;;;;;;;;;;5007597;28;20445;-81
2022/07/18 02:39:17;;;;;;;14.90;7.88;;;;;;;;;;5007846;28;20038;-80
2022/07/18 02:41:44;;;;;;;13.75;7.13;;;;;;;;;;5012683;28;20462;-78
2022/07/18 02:44:10;;;;;;;14.77;7.13;;;;;;;;;;5011411;28;20389;-81
2022/07/18 02:46:36;;;;;;;17.48;7.55;;;;;;;;;;5009705;28;20108;-78
2022/07/18 02:49:02;;;;;;;16.52;7.25;;;;;;;;;;5010003;28;20073;-78
2022/07/18 02:51:28;;;;;;;16.73;7.80;;;;;;;;;;5010827;28;20510;-76
2022/07/18 02:53:54;;;;;;;13.77;6.97;;;;;;;;;;5011097;28;20507;-78
2022/07/18 02:56:20;;;;;;;14.57;7.38;;;;;;;;;;5012459;28;20041;-75
2022/07/18 02:58:46;;;;;;;16.15;7.07;;;;;;;;;;5011587;28;20046;-77
2022/07/18 03:01:12;;;;;;;14.30;7.25;;;;;;;;;;5011013;28;20462;-75
2022/07/18 03:03:39;;;;;;;14.10;6.80;;;;;;;;;;5010989;28;20037;-75
2022/07/18 03:06:05;;;;;;;16.67;7.40;;;;;;;;;;5011242;28;20042;-74
2022/07/18 03:08:31;;;;;;;;;;;;;;;;;;5010576;28;20038;-76
2022/07/18 03:10:57;;;;;;;16.63;7.50;;;;;;;;;;4993511;28;19925;-80
2022/07/18 03:13:23;;;;;;;14.52;6.90;;;;;;;;;;5001647;28;20550;-75
2022/07/18 03:15:49;;;;;;;14.07;7.15;;;;;;;;;;4993990;28;20045;-74
2022/07/18 03:18:15;;;;;;;16.85;7.43;;;;;;;;;;5010296;28;20528;-74
2022/07/18 03:20:41;;;;;;;;;;;;;;;;;;5010219;28;20065;-83
2022/07/18 03:23:07;;;;;;;14.60;7.82;;;;;;;;;;5012628;28;19921;-80
2022/07/18 03:25:33;;;;;;;16.35;7.80;;;;;;;;;;5010801;28;20391;-78
2022/07/18 03:28:00;;;;;;;15.38;7.68;;;;;;;;;;5025545;28;20071;-76
2022/07/18 03:30:26;;;;;;;16.00;7.80;;;;;;;;;;5011598;28;20118;-78
2022/07/18 03:32:52;;;;;;;;;;;;;;;;;;5030809;28;20045;-76
2022/07/18 03:35:18;;;;;;;15.75;7.80;;;;;;;;;;5029897;28;20059;-73
2022/07/18 03:37:44;;;;;;;15.98;7.32;;;;;;;;;;5048505;28;20124;-78
2022/07/18 03:40:10;;;;;;;;;;;;;;;;;;4997528;28;20460;-74
2022/07/18 03:42:39;;;;;;;15.80;7.63;;;;;;;;;;5029086;28;19990;-78
2022/07/18 03:45:06;;;;;;;15.13;6.93;;;;;;;;;;5028356;28;20041;-78
2022/07/18 03:47:32;;;;;;;15.40;7.13;;;;;;;;;;5022627;28;20093;-78
2022/07/18 03:49:59;;;;;;;17.60;7.07;;;;;;;;;;5037278;28;20174;-78
2022/07/18 03:52:25;;;;;;;15.52;7.30;;;;;;;;;;5010586;28;20134;-78
2022/07/18 03:54:51;;;;;;;15.70;7.55;;;;;;;;;;5032893;28;20094;-78
2022/07/18 03:57:17;;;;;;;13.48;7.10;;;;;;;;;;5028832;28;20159;-78
2022/07/18 03:59:43;;;;;;;15.50;6.53;;;;;;;;;;5028941;28;20033;-77
2022/07/18 04:02:09;;;;;;;17.77;7.60;;;;;;;;;;5010611;28;20126;-76
2022/07/18 04:04:35;;;;;;;16.77;7.82;;;;;;;;;;5032202;28;20342;-75
2022/07/18 04:07:01;;;;;;;15.88;7.38;;;;;;;;;;5029570;28;20263;-77
2022/07/18 04:09:28;;;;;;;16.15;7.72;;;;;;;;;;5010278;28;20075;-77
2022/07/18 04:11:54;;;;;;;14.55;6.57;;;;;;;;;;5041942;28;20049;-74
2022/07/18 04:14:22;;;;;;;14.68;7.55;;;;;;;;;;5026377;28;20052;-74
2022/07/18 04:16:48;;;;;;;16.95;7.45;;;;;;;;;;5034748;28;20088;-76
2022/07/18 04:19:14;;;;;;;17.98;7.47;;;;;;;;;;5006623;28;20428;-78
2022/07/18 04:21:40;;;;;;;15.10;7.25;;;;;;;;;;5019673;28;20307;-74
2022/07/18 04:24:07;;;;;;;15.00;7.47;;;;;;;;;;5043302;28;20041;-78
2022/07/18 04:26:33;;;;;;;14.15;6.78;;;;;;;;;;5028766;28;20072;-75
2022/07/18 04:28:59;;;;;;;15.60;6.82;;;;;;;;;;5028324;28;20041;-75
2022/07/18 04:31:25;;;;;;;16.23;6.78;;;;;;;;;;5017853;28;20128;-78
2022/07/18 04:33:51;;;;;;;13.43;6.45;;;;;;;;;;5031500;28;20075;-77
2022/07/18 04:36:18;;;;;;;14.65;6.82;;;;;;;;;;5027475;28;20100;-71
2022/07/18 04:38:44;;;;;;;13.93;6.90;;;;;;;;;;5027190;28;20144;-76
2022/07/18 04:41:10;;;;;;;13.43;6.18;;;;;;;;;;5026847;28;20045;-73
2022/07/18 04:43:36;;;;;;;16.52;6.57;;;;;;;;;;5029575;28;20049;-71
2022/07/18 04:46:03;;;;;;;13.05;5.90;;;;;;;;;;5027767;28;20041;-76
2022/07/18 04:48:29;;;;;;;12.73;6.00;;;;;;;;;;5009458;28;20086;-75
2022/07/18 04:50:55;;;;;;;;;;;;;;;;;;5029371;28;20041;-75
2022/07/18 04:53:21;;;;;;;17.08;6.30;;;;;;;;;;5032509;28;19917;-78
2022/07/18 04:55:47;;;;;;;14.32;6.22;;;;;;;;;;5016612;28;20441;-78
2022/07/18 04:58:13;;;;;;;12.95;5.72;;;;;;;;;;5009657;28;20045;-78
2022/07/18 05:00:39;;;;;;;12.98;5.40;;;;;;;;;;5011888;28;20065;-79
2022/07/18 05:03:05;;;;;;;12.98;5.32;;;;;;;;;;5044678;28;20484;-79
2022/07/18 05:05:31;;;;;;;16.17;6.43;;;;;;;;;;5010307;28;20375;-78
2022/07/18 05:07:57;;;;;;;14.25;5.60;;;;;;;;;;5027481;28;20084;-78
2022/07/18 05:10:24;;;;;;;12.40;5.22;;;;;;;;;;5009048;28;20127;-77
2022/07/18 05:12:51;;;;;;;14.68;5.35;;;;;;;;;;5029276;28;20528;-79
2022/07/18 05:15:18;;;;;;;12.88;5.18;;;;;;;;;;5025467;28;20052;-77
2022/07/18 05:17:45;;;;;;;11.63;5.00;;;;;;;;;;5027173;28;20338;-78
2022/07/18 05:20:11;;;;;;;;;;;;;;;;;;5028317;28;20511;-81
2022/07/18 05:22:37;;;;;;;12.90;4.88;;;;;;;;;;5008236;28;19917;-78
2022/07/18 05:25:04;;;;;;;11.57;4.68;;;;;;;;;;5030077;28;20905;-78
2022/07/18 05:27:31;;;;;;;12.10;4.35;;;;;;;;;;4992178;28;20053;-76
2022/07/18 05:29:58;;;;;;;;;;;;;;;;;;5042453;28;20123;-77
2022/07/18 05:32:25;;;;;;;11.40;4.53;;;;;;;;;;5012399;28;20012;-76
2022/07/18 05:34:51;;;;;;;14.55;4.60;;;;;;;;;;5027397;28;20037;-76
2022/07/18 05:37:17;;;;;;;12.40;4.82;;;;;;;;;;5041252;28;20500;-75
2022/07/18 05:39:43;;;;;;;11.57;4.60;;;;;;;;;;5029794;28;20311;-74
2022/07/18 05:42:09;;;;;;;12.45;4.63;;;;;;;;;;5033468;28;20044;-73
2022/07/18 05:44:35;;;;;;;12.45;4.30;;;;;;;;;;5009889;28;20104;-73
2022/07/18 05:47:01;;;;;;;13.65;4.32;;;;;;;;;;5035064;28;20124;-75
2022/07/18 05:49:27;;;;;;;11.13;4.53;;;;;;;;;;5046108;28;20053;-74
2022/07/18 05:51:53;;;;;;;12.95;4.82;;;;;;;;;;5015481;28;20389;-75
2022/07/18 05:54:19;;;;;;;;;;;;;;;;;;5009623;28;20089;-77
2022/07/18 05:56:47;;;;;;;10.38;4.00;;;;;;;;;;5026478;28;20003;-72
2022/07/18 05:59:13;;;;;;;14.32;4.40;;;;;;;;;;5028518;28;20488;-73
2022/07/18 06:01:39;;;;;;;10.88;3.90;;;;;;;;;;5029021;28;20045;-74
2022/07/18 06:04:06;;;;;;;12.05;4.10;;;;;;;;;;5010277;28;20049;-75
2022/07/18 06:06:32;;;;;;;;;;;;;;;;;;5027815;28;20120;-74
2022/07/18 06:08:58;;;;;;;13.30;4.13;;;;;;;;;;5039292;28;20023;-73
2022/07/18 06:11:24;;;;;;;;;;;;;;;;;;5033930;28;20036;-74
2022/07/18 06:13:50;;;;;;;11.23;4.07;;;;;;;;;;5028131;28;19917;-75
2022/07/18 06:16:16;;;;;;;11.50;3.63;;;;;;;;;;5009944;28;20045;-74
2022/07/18 06:18:42;;;;;;;9.98;3.70;;;;;;;;;;5040857;28;20060;-74
2022/07/18 06:21:08;;;;;;;;;;;;;;;;;;5036524;28;20056;-73
2022/07/18 06:23:35;;;;;;;11.07;3.65;;;;;;;;;;5026250;28;20322;-73
2022/07/18 06:26:01;;;;;;;11.38;3.63;;;;;;;;;;5038008;28;20467;-71
2022/07/18 06:28:28;;;;;;;9.07;3.60;;;;;;;;;;5029065;28;20037;-74
2022/07/18 06:30:54;;;;;;;9.95;3.65;;;;;;;;;;5021051;28;20041;-73
2022/07/18 06:33:22;;;;;;;11.80;3.95;;;;;;;;;;5034445;28;20818;-75
2022/07/18 06:35:48;;;;;;;;;;;;;;;;;;5032649;28;20140;-71
2022/07/18 06:38:15;;;;;;;11.30;4.28;;;;;;;;;;5029093;28;20287;-82
2022/07/18 06:40:41;;;;;;;13.48;4.30;;;;;;;;;;5043477;28;20301;-79
2022/07/18 06:43:07;;;;;;;;;;;;;;;;;;5028942;28;20372;-80
2022/07/18 06:45:33;;;;;;;11.98;4.40;;;;;;;;;;5041023;28;19917;-80
2022/07/18 06:47:59;;;;;;;11.43;3.97;;;;;;;;;;5041018;28;20033;-81
2022/07/18 06:50:25;;;;;;;;;;;;;;;;;;5005535;28;20040;-78
2022/07/18 06:52:52;;;;;;;10.02;3.70;;;;;;;;;;5026547;28;19917;-78
2022/07/18 06:55:18;;;;;;;;;;;;;;;;;;5040722;28;20132;-78
2022/07/18 06:57:44;;;;;;;11.57;3.80;;;;;;;;;;5010642;28;20001;-77
2022/07/18 07:00:13;;;;;;;13.80;3.90;;;;;;;;;;5042405;28;20093;-79
2022/07/18 07:02:46;;;;;;;11.38;3.67;;;;;;;;;;5006511;28;20132;-76
2022/07/18 07:05:13;;;;;;;11.52;3.70;;;;;;;;;;5011564;28;20064;-79
2022/07/18 07:07:39;;;;;;;11.02;3.97;;;;;;;;;;5014393;28;20180;-77
2022/07/18 07:10:05;;;;;;;;;;;;;;;;;;5008179;28;20179;-80
2022/07/18 07:12:38;;;;;;;9.75;3.90;;;;;;;;;;5010877;28;19978;-81
2022/07/18 07:15:04;;;;;;;10.40;3.42;;;;;;;;;;5007802;28;20054;-83
2022/07/18 07:17:30;;;;;;;11.38;3.88;;;;;;;;;;5011993;28;20161;-82
2022/07/18 07:19:56;;;;;;;;;;;;;;;;;;5026913;28;20044;-80
2022/07/18 07:22:22;;;;;;;13.40;3.65;;;;;;;;;;5039709;28;19917;-83
2022/07/18 07:24:49;;;;;;;10.50;3.70;;;;;;;;;;5043842;28;20059;-76
2022/07/18 07:27:15;;;;;;;11.70;3.92;;;;;;;;;;5013528;28;20042;-78
2022/07/18 07:29:41;;;;;;;;;;;;;;;;;;5040253;28;20072;-79
2022/07/18 07:32:07;;;;;;;11.07;3.60;;;;;;;;;;5001794;28;20114;-80
2022/07/18 07:34:33;;;;;;;11.40;3.70;;;;;;;;;;5017523;28;20590;-80
2022/07/18 07:36:59;;;;;;;;;;;;;;;;;;5027097;28;20129;-80
2022/07/18 07:39:25;;;;;;;12.25;3.67;;;;;;;;;;5025617;28;19964;-82
2022/07/18 07:41:51;;;;;;;;;;;;;;;;;;5017383;28;20064;-83
2022/07/18 07:44:17;;;;;;;10.93;3.47;;;;;;;;;;5008805;28;20316;-82
2022/07/18 07:46:43;;;;;;;14.23;3.50;;;;;;;;;;5009080;28;20054;-75
2022/07/18 07:49:09;;;;;;;;;;;;;;;;;;5021467;28;20081;-73
2022/07/18 07:51:35;;;;;;;10.35;3.40;;;;;;;;;;5018306;28;19971;-73
2022/07/18 07:54:02;;;;;;;11.13;3.50;;;;;;;;;;5015823;28;20045;-74
2022/07/18 07:56:28;;;;;;;10.82;3.63;;;;;;;;;;5009815;28;20056;-72
2022/07/18 07:58:54;;;;;;;;;;;;;;;;;;5024790;28;20054;-72
2022/07/18 08:01:20;;;;;;;9.68;3.15;;;;;;;;;;5009783;28;19937;-73
2022/07/18 08:03:48;;;;;;;12.00;3.50;;;;;;;;;;5009440;28;20041;-70
2022/07/18 08:06:15;;;;;;;11.48;3.53;;;;;;;;;;5011958;28;20175;-72
2022/07/18 08:08:41;;;;;;;10.43;3.10;;;;;;;;;;5029301;28;20385;-72
2022/07/18 08:11:07;;;;;;;;;;;;;;;;;;5029461;28;20037;-73
2022/07/18 08:13:33;;;;;;;11.30;3.20;;;;;;;;;;5027751;28;19982;-73
2022/07/18 08:15:59;;;;;;;12.43;4.03;;;;;;;;;;5025695;28;20106;-73
2022/07/18 08:18:25;;;;;;;10.57;2.90;;;;;;;;;;5024546;28;20045;-73
2022/07/18 08:20:51;;;;;;;;;;;;;;;;;;5009532;28;20046;-73
2022/07/18 08:23:17;;;;;;;11.50;3.10;;;;;;;;;;5009475;28;20342;-74
2022/07/18 08:25:44;;;;;;;15.82;3.40;;;;;;;;;;5024118;28;20053;-73
2022/07/18 08:28:11;;;;;;;8.95;3.28;;;;;;;;;;5008805;28;20434;-72
2022/07/18 08:30:37;;;;;;;8.13;2.85;;;;;;;;;;5030123;28;20064;-71
2022/07/18 08:33:04;;;;;;;10.05;3.15;;;;;;;;;;5049513;28;20491;-71
2022/07/18 08:35:31;;;;;;;10.10;2.88;;;;;;;;;;5049307;28;20040;-77
2022/07/18 08:37:57;;;;;;;11.35;3.28;;;;;;;;;;5019402;28;20413;-73
2022/07/18 08:40:23;;;;;;;9.60;3.22;;;;;;;;;;5028756;28;20457;-68
2022/07/18 08:42:53;;;;;;;9.05;3.10;;;;;;;;;;5028205;28;20454;-72
2022/07/18 08:45:24;;;;;;;11.02;2.97;;;;;;;;;;5028464;28;20045;-74
2022/07/18 08:47:51;;;;;;;11.65;3.00;;;;;;;;;;5028820;28;20034;-75
2022/07/18 08:50:17;;;;;;;9.65;2.63;;;;;;;;;;5048556;28;20135;-72
2022/07/18 08:52:43;;;;;;;10.73;2.85;;;;;;;;;;5048363;28;20080;-73
2022/07/18 08:55:10;;;;;;;11.18;3.38;;;;;;;;;;5042495;28;20113;-71
2022/07/18 08:57:36;;;;;;;8.77;2.90;;;;;;;;;;5028376;28;20477;-76
2022/07/18 09:00:07;;;;;;;10.90;2.75;;;;;;;;;;5028449;28;20117;-75
2022/07/18 09:02:33;;;;;;;8.38;2.55;;;;;;;;;;5028290;28;20086;-73
2022/07/18 09:04:59;;;;;;;;;;;;;;;;;;5028719;28;20302;-73
2022/07/18 09:07:27;;;;;;;8.85;2.70;;;;;;;;;;5028377;28;19917;-72
2022/07/18 09:09:55;;;;;;;7.68;2.53;;;;;;;;;;5010201;28;20132;-73
2022/07/18 09:12:21;;;;;;;11.88;2.92;;;;;;;;;;5027757;28;20041;-72
2022/07/18 09:14:47;;;;;;;14.48;3.17;;;;;;;;;;5027789;28;20437;-72
2022/07/18 09:17:20;;;;;;;11.65;3.05;;;;;;;;;;5027615;28;20049;-72
2022/07/18 09:19:57;;;;;;;10.43;2.95;;;;;;;;;;5027478;28;20041;-73
2022/07/18 09:22:24;;;;;;;11.27;2.78;;;;;;;;;;5027980;28;20041;-72
2022/07/18 09:24:57;;;;;;;9.35;2.83;;;;;;;;;;5009869;28;20081;-73
2022/07/18 09:27:36;;;;;;;8.55;2.72;;;;;;;;;;5029204;28;20057;-74
2022/07/18 09:30:25;;;;;;;9.98;2.90;;;;;;;;;;5027186;28;20587;-72
2022/07/18 09:32:51;;;;;;;9.00;2.60;;;;;;;;;;4981129;28;20049;-73
2022/07/18 09:35:19;;;;;;;12.68;3.42;;;;;;;;;;4991702;28;20042;-72
2022/07/18 09:37:55;;;;;;;10.88;2.90;;;;;;;;;;5004435;28;20136;-71
2022/07/18 09:40:22;;;;;;;10.43;2.85;;;;;;;;;;5003743;28;20089;-72
2022/07/18 09:42:55;;;;;;;9.40;3.10;;;;;;;;;;5006799;28;20056;-74
2022/07/18 09:45:22;;;;;;;13.40;2.80;;;;;;;;;;5007336;28;20056;-72
2022/07/18 09:47:50;;;;;;;12.27;2.95;;;;;;;;;;5006544;28;20545;-71
2022/07/18 09:50:45;;;;;;;12.98;2.97;;;;;;;;;;5003120;28;20104;-69
2022/07/18 09:53:13;;;;;;;9.18;2.63;;;;;;;;;;4973061;28;20141;-73
2022/07/18 09:55:43;;;;;;;11.70;2.90;;;;;;;;;;4988095;28;20056;-74
2022/07/18 09:58:09;;;;;;;10.13;2.60;;;;;;;;;;4986682;28;20050;-70
2022/07/18 10:00:36;;;;;;;10.13;2.90;;;;;;;;;;5000559;28;20048;-72
2022/07/18 10:03:04;;;;;;;12.82;3.20;;;;;;;;;;4987460;28;20124;-77
2022/07/18 10:05:31;;;;;;;15.68;4.00;;;;;;;;;;4989228;28;20083;-72
2022/07/18 10:07:57;;;;;;;9.18;2.70;;;;;;;;;;5008244;28;20036;-74
2022/07/18 10:10:24;;;;;;;12.50;3.40;;;;;;;;;;4995868;28;20120;-73
2022/07/18 10:13:01;;;;;;;10.25;2.70;;;;;;;;;;4994644;28;20042;-73
2022/07/18 10:15:28;;;;;;;11.25;3.05;;;;;;;;;;4994416;28;20092;-72
2022/07/18 10:17:55;;;;;;;11.10;3.15;;;;;;;;;;4992535;28;20045;-84
2022/07/18 10:20:29;;;;;;;11.00;3.45;;;;;;;;;;4970281;28;20080;-75
2022/07/18 10:22:56;;;;;;;9.30;2.88;;;;;;;;;;4984871;28;20232;-80
2022/07/18 10:25:23;;;;;;;9.15;2.97;;;;;;;;;;4996620;28;20033;-78
2022/07/18 10:27:53;;;;;;;16.00;3.30;;;;;;;;;;4969629;28;20050;-89
2022/07/18 10:30:29;;;;;;;11.38;3.40;;;;;;;;;;4993210;28;20320;-81
2022/07/18 10:32:56;;;;;;;9.07;2.78;;;;;;;;;;5009951;28;20433;-76
2022/07/18 10:35:42;;;;;;;10.00;3.17;;;;;;;;;;5012992;28;20045;-75
2022/07/18 10:38:21;;;;;;;8.23;3.17;;;;;;;;;;5008285;28;20045;-76
2022/07/18 10:41:07;;;;;;;11.70;4.20;;;;;;;;;;5025165;28;20052;-76
2022/07/18 10:43:35;;;;;;;12.80;3.58;;;;;;;;;;5029834;28;20032;-78
2022/07/18 10:46:02;;;;;;;10.35;3.40;;;;;;;;;;5011983;28;20528;-79
2022/07/18 10:48:37;;;;;;;12.20;3.70;;;;;;;;;;5043713;28;20079;-79
2022/07/18 10:51:10;;;;;;;11.57;3.80;;;;;;;;;;5034626;28;20077;-75
2022/07/18 10:53:54;;;;;;;13.63;3.88;;;;;;;;;;5043779;28;20041;-78
2022/07/18 10:56:21;;;;;;;10.43;3.60;;;;;;;;;;5025970;28;20072;-76
2022/07/18 10:58:47;;;;;;;12.48;3.70;;;;;;;;;;5018552;28;20386;-74
2022/07/18 11:01:17;;;;;;;12.32;3.60;;;;;;;;;;5045930;28;20378;-81
2022/07/18 11:03:43;;;;;;;51.63;6.70;;;;;;;;;;5039588;28;20052;-72
2022/07/18 11:06:09;;;;;;;11.13;4.10;;;;;;;;;;5043892;28;20151;-73
2022/07/18 11:08:36;;;;;;;12.68;3.97;;;;;;;;;;5046621;28;20063;-72
2022/07/18 11:11:02;;;;;;;11.23;3.70;;;;;;;;;;5036123;28;20089;-78
2022/07/18 11:13:28;;;;;;;10.32;3.63;;;;;;;;;;5040116;28;20036;-80
2022/07/18 11:15:58;;;;;;;10.02;4.05;;;;;;;;;;5048831;28;20105;-75
2022/07/18 11:18:24;;;;;;;11.48;4.25;;;;;;;;;;5046694;28;20089;-71
2022/07/18 11:20:51;;;;;;;10.82;4.07;;;;;;;;;;5040914;28;20525;-77
2022/07/18 11:23:22;;;;;;;11.40;3.95;;;;;;;;;;5048823;28;20589;-68
2022/07/18 11:25:49;;;;;;;11.52;4.05;;;;;;;;;;5044274;28;20120;-72
2022/07/18 11:28:15;;;;;;;11.65;4.35;;;;;;;;;;5029807;28;20045;-78
2022/07/18 11:30:42;;;;;;;14.95;4.43;;;;;;;;;;5030096;28;20051;-76
2022/07/18 11:33:26;;;;;;;11.73;4.25;;;;;;;;;;5047949;28;20560;-81
2022/07/18 11:35:53;;;;;;;11.23;4.00;;;;;;;;;;5035938;28;20059;-75
2022/07/18 11:38:19;;;;;;;10.73;4.03;;;;;;;;;;5038519;28;20100;-69
2022/07/18 11:40:47;;;;;;;10.55;4.20;;;;;;;;;;5036252;28;20033;-75
2022/07/18 11:43:19;;;;;;;10.35;3.97;;;;;;;;;;5036102;28;20116;-78
2022/07/18 11:45:45;;;;;;;12.60;4.40;;;;;;;;;;5041730;28;20485;-81
2022/07/18 11:48:11;;;;;;;11.73;4.32;;;;;;;;;;5036321;28;20208;-75
2022/07/18 11:50:38;;;;;;;11.35;4.43;;;;;;;;;;5041256;28;20041;-75
2022/07/18 11:53:04;;;;;;;13.10;4.78;;;;;;;;;;5039033;28;20124;-77
2022/07/18 11:55:37;;;;;;;11.65;4.25;;;;;;;;;;5043827;28;20128;-78
2022/07/18 11:58:09;;;;;;;14.20;4.38;;;;;;;;;;5041430;28;20519;-83
2022/07/18 12:00:35;;;;;;;14.50;4.47;;;;;;;;;;5030446;28;20042;-81
2022/07/18 12:03:07;;;;;;;12.57;4.32;;;;;;;;;;5038883;28;20040;-83
2022/07/18 12:05:36;;;;;;;10.90;4.28;;;;;;;;;;5034751;28;20477;-77
2022/07/18 12:08:22;;;;;;;11.93;4.70;;;;;;;;;;5017261;28;20128;-81
2022/07/18 12:11:07;;;;;;;17.65;4.95;;;;;;;;;;5007079;28;20080;-82
2022/07/18 12:13:48;;;;;;;12.77;5.10;;;;;;;;;;5047306;28;20059;-84
2022/07/18 12:16:23;;;;;;;11.73;4.72;;;;;;;;;;5027094;28;20055;-76
2022/07/18 12:18:54;;;;;;;11.57;4.80;;;;;;;;;;5012476;28;20068;-72
2022/07/18 12:21:20;;;;;;;11.90;4.43;;;;;;;;;;5029550;28;20162;-75
2022/07/18 12:23:46;;;;;;;11.55;4.57;;;;;;;;;;5047523;28;20194;-76
2022/07/18 12:26:33;;;;;;;11.32;5.07;;;;;;;;;;5021665;28;20053;-76
2022/07/18 12:29:06;;;;;;;11.95;4.95;;;;;;;;;;5039158;28;20041;-76
2022/07/18 12:31:36;;;;;;;14.00;5.18;;;;;;;;;;5009784;28;20081;-82
2022/07/18 12:34:15;;;;;;;12.07;5.07;;;;;;;;;;5019132;28;20476;-86
2022/07/18 12:36:54;;;;;;;12.68;4.80;;;;;;;;;;5011725;28;20053;-83
2022/07/18 12:39:33;;;;;;;11.20;5.30;;;;;;;;;;5015728;28;20052;-72
2022/07/18 12:42:00;;;;;;;17.23;4.90;;;;;;;;;;5016271;28;20088;-72
2022/07/18 12:44:27;;;;;;;11.52;4.53;;;;;;;;;;5048212;28;20060;-76
2022/07/18 12:46:53;;;;;;;12.25;4.88;;;;;;;;;;5010309;28;20220;-79
2022/07/18 12:49:19;;;;;;;10.30;4.18;;;;;;;;;;5039920;28;20054;-75
2022/07/18 12:51:46;;;;;;;13.32;4.32;;;;;;;;;;5027590;28;20121;-78
2022/07/18 12:54:12;;;;;;;12.73;4.60;;;;;;;;;;5029597;28;20094;-78
2022/07/18 12:56:38;;;;;;;11.30;4.18;;;;;;;;;;5037474;28;21757;-83
2022/07/18 12:59:05;;;;;;;12.30;4.93;;;;;;;;;;5043073;28;20075;-76
2022/07/18 13:01:31;;;;;;;13.00;4.65;;;;;;;;;;5034489;28;20116;-75
2022/07/18 13:03:58;;;;;;;10.85;4.82;;;;;;;;;;5036447;28;20060;-85
2022/07/18 13:06:24;;;;;;;14.40;4.25;;;;;;;;;;5013272;28;20045;-78
2022/07/18 13:08:50;;;;;;;11.40;4.45;;;;;;;;;;5028580;28;20260;-77
2022/07/18 13:11:16;;;;;;;13.30;4.75;;;;;;;;;;5028771;28;20063;-80
2022/07/18 13:13:42;;;;;;;12.80;4.97;;;;;;;;;;5038523;28;20045;-83
2022/07/18 13:16:08;;;;;;;12.25;4.40;;;;;;;;;;5040892;28;20051;-77
2022/07/18 13:18:34;;;;;;;11.93;4.88;;;;;;;;;;4989734;28;20461;-74
2022/07/18 13:21:00;;;;;;;12.50;5.18;;;;;;;;;;5033241;28;20107;-78
2022/07/18 13:23:26;;;;;;;12.45;4.97;;;;;;;;;;5034716;28;20049;-72
2022/07/18 13:25:52;;;;;;;15.75;5.55;;;;;;;;;;5018315;28;20178;-75
2022/07/18 13:28:18;;;;;;;10.63;4.72;;;;;;;;;;5032549;28;20102;-72
2022/07/18 13:30:44;;;;;;;11.18;5.40;;;;;;;;;;5038855;28;20048;-79
2022/07/18 13:33:10;;;;;;;10.43;5.15;;;;;;;;;;5044630;28;20093;-73
2022/07/18 13:35:36;;;;;;;12.88;5.68;;;;;;;;;;5022642;28;20136;-74
2022/07/18 13:38:03;;;;;;;13.50;5.28;;;;;;;;;;5035719;28;20133;-72
2022/07/18 13:40:29;;;;;;;12.40;5.20;;;;;;;;;;5044309;28;20433;-76
2022/07/18 13:42:55;;;;;;;10.75;5.00;;;;;;;;;;5027443;28;20437;-74
2022/07/18 13:45:21;;;;;;;11.82;4.70;;;;;;;;;;5028128;28;20103;-73
2022/07/18 13:47:47;;;;;;;14.57;4.97;;;;;;;;;;5043215;28;20040;-85
2022/07/18 13:50:13;;;;;;;12.25;4.70;;;;;;;;;;5003991;28;20365;-83
2022/07/18 13:52:39;;;;;;;13.98;4.97;;;;;;;;;;5013873;28;20060;-93
2022/07/18 13:55:06;;;;;;;13.10;4.97;;;;;;;;;;5009672;28;20040;-91
2022/07/18 13:57:32;;;;;;;11.40;4.97;;;;;;;;;;5048640;28;20048;-92
2022/07/18 13:59:58;;;;;;;12.73;4.35;;;;;;;;;;5025877;28;20029;-87
2022/07/18 14:02:24;;;;;;;12.30;5.18;;;;;;;;;;5018781;28;22018;-81
2022/07/18 14:04:50;;;;;;;11.48;4.72;;;;;;;;;;5023038;28;20046;-75
2022/07/18 14:07:18;;;;;;;10.98;4.53;;;;;;;;;;5037028;28;20460;-77
2022/07/18 14:09:44;;;;;;;11.18;4.38;;;;;;;;;;5027096;28;20064;-75
2022/07/18 14:12:10;;;;;;;14.82;5.20;;;;;;;;;;5026220;28;20055;-75
2022/07/18 14:14:36;;;;;;;12.80;5.32;;;;;;;;;;5031369;28;20428;-78
2022/07/18 14:17:02;;;;;;;12.10;4.70;;;;;;;;;;5008932;28;20175;-80
2022/07/18 14:19:29;;;;;;;11.85;4.68;;;;;;;;;;5008528;28;20128;-75
2022/07/18 14:21:55;;;;;;;13.27;5.13;;;;;;;;;;5026541;28;20118;-69
2022/07/18 14:24:21;;;;;;;10.70;4.75;;;;;;;;;;5029829;28;20082;-79
2022/07/18 14:26:47;;;;;;;10.98;4.80;;;;;;;;;;5039680;28;20464;-86
2022/07/18 14:29:14;;;;;;;12.18;4.63;;;;;;;;;;4992348;28;20042;-70
2022/07/18 14:31:40;;;;;;;10.73;4.70;;;;;;;;;;5027291;28;20170;-72
2022/07/18 14:34:06;;;;;;;12.82;4.90;;;;;;;;;;5042807;28;20112;-74
2022/07/18 14:36:32;;;;;;;11.38;4.80;;;;;;;;;;5033753;28;20057;-73
2022/07/18 14:38:58;;;;;;;10.95;4.53;;;;;;;;;;5030882;28;20275;-75
2022/07/18 14:41:24;;;;;;;10.50;4.53;;;;;;;;;;5014871;28;20037;-73
2022/07/18 14:43:50;;;;;;;11.05;4.13;;;;;;;;;;5024351;28;20042;-71
2022/07/18 14:46:16;;;;;;;13.55;4.35;;;;;;;;;;5032643;28;20132;-80